ADDS METAR Data INFO
IDs: Format: Raw Decoded Include TAF

Data at: 1056 UTC 20 Sep 2017

KLFK 201053Z AUTO 18004KT 9SM BKN023 25/24 A2993 RMK AO2 SLP130 T02500244
KLFK 201035Z AUTO 17003KT 9SM SCT012 OVC020 25/24 A2992 RMK AO2 T02500244
KLFK 200953Z AUTO 00000KT 9SM OVC010 25/24 A2992 RMK AO2 CIG 008V013 SLP126 T02500244
KLFK 200853Z AUTO 17006KT 10SM OVC011 25/24 A2991 RMK AO2 SLP123 T02500244 53000
KLFK 200820Z AUTO 15006KT 9SM OVC011 25/24 A2991 RMK AO2 T02500244
KLFK 200753Z AUTO 16007KT 8SM OVC008 25/24 A2990 RMK AO2 CIG 006V012 SLP120 T02500244
KLFK 200653Z AUTO 16008KT 8SM OVC006 25/24 A2991 RMK AO2 CIG 005V009 SLP122 T02500244
KLFK 200553Z AUTO 14007KT 8SM OVC006 25/24 A2991 RMK AO2 SLP122 T02500244 10283 20244 403170228 50001
KLFK 200519Z AUTO 14006KT 8SM BKN009 24/24 A2991 RMK AO2 T02440239
KLFK 200506Z AUTO 15005KT 8SM SCT009 24/24 A2991 RMK AO2 T02440239
KLFK 200453Z AUTO 14006KT 9SM FEW010 24/24 A2991 RMK AO2 SLP124 T02440239
KLFK 200353Z AUTO 14004KT 10SM CLR 24/24 A2992 RMK AO2 SLP128 T02440239
KLFK 200253Z AUTO 15005KT 10SM CLR 26/24 A2991 RMK AO2 SLP122 T02560239 53013
KLFK 200153Z AUTO 15005KT 10SM CLR 26/23 A2989 RMK AO2 SLP117 T02560233
KLFK 200053Z AUTO 14006KT 10SM CLR 27/24 A2987 RMK AO2 SLP110 T02670239
KLFK 192353Z AUTO 17004KT 10SM CLR 28/24 A2987 RMK AO2 SLP108 60006 T02830244 10317 20283 55006
KLFK 192253Z AUTO 16008KT 10SM CLR 30/24 A2986 RMK AO2 SLP107 T03000239
KLFK 192153Z AUTO 14007KT 10SM FEW065 31/24 A2987 RMK AO2 SLP111 T03060239
KLFK 192053Z AUTO 15008KT 10SM CLR 31/24 A2988 RMK AO2 LTG DSNT E AND S RAB04E16 SLP114 P0006 60006 T03060244 58024
KLFK 191953Z AUTO 16009KT 10SM BKN035 BKN045 31/24 A2991 RMK AO2 SLP124 T03060239
KLFK 191853Z AUTO 21009KT 10SM FEW034 SCT047 BKN110 31/23 A2993 RMK AO2 SLP131 T03110233
KLFK 191753Z AUTO 19005KT 10SM SCT030 31/23 A2996 RMK AO2 SLP139 T03060233 10306 20244 58010
KLFK 191729Z AUTO 23007KT 10SM SCT026 SCT034 31/24 A2997 RMK AO2 T03060239
KLFK 191653Z AUTO 21005KT 10SM BKN024 BKN033 29/24 A2998 RMK AO2 SLP147 T02940244
KLFK 191638Z AUTO 22005KT 10SM BKN024 BKN030 29/24 A2998 RMK AO2 T02940244
KLFK 191553Z AUTO 16006KT 10SM FEW014 SCT025 28/24 A2999 RMK AO2 SLP150 T02780244
KLFK 191543Z AUTO 18006KT 10SM SCT013 BKN021 BKN026 28/25 A2998 RMK AO2 T02830250
KLFK 191530Z AUTO VRB05KT 10SM BKN013 BKN021 OVC026 27/24 A2999 RMK AO2 T02670244
KLFK 191503Z AUTO 20004KT 10SM SCT009 BKN015 OVC021 27/25 A2999 RMK AO2 T02670250
KLFK 191453Z AUTO 21004KT 9SM BKN007 BKN013 OVC021 26/24 A2999 RMK AO2 CIG 006V010 SLP151 T02610244 53009
KLFK 191353Z AUTO 15003KT 6SM BR BKN008 OVC012 25/24 A2998 RMK AO2 CIG 005V010 SLP147 T02500244
KLFK 191330Z AUTO 17003KT 6SM BR BKN009 OVC021 24/24 A2998 RMK AO2 CIG 004V010 T02440244
KLFK 191305Z AUTO 18003KT 6SM BR SCT005 OVC020 24/24 A2997 RMK AO2 T02440244
KLFK 191253Z AUTO 19003KT 5SM BR BKN005 OVC020 24/24 A2997 RMK AO2 SLP146 T02440244
KLFK 191153Z AUTO 24003KT 7SM OVC005 24/24 A2996 RMK AO2 SLP142 70105 T02440239 10244 20228 51005
KLFK 191151Z AUTO 23003KT 7SM OVC005 24/24 A2996 RMK AO2
KLFK 191053Z AUTO 22004KT 6SM BR OVC004 24/24 A2995 RMK AO2 SLP138 T02440239
KLFK 191034Z AUTO 22005KT 6SM BR OVC004 24/24 A2994 RMK AO2 T02390239
KLFK 191023Z AUTO 22005KT 6SM BR OVC005 24/24 A2995 RMK AO2 T02390239
KLFK 190953Z AUTO 23005KT 6SM BR OVC003 24/24 A2995 RMK AO2 SLP136 T02390239
KLFK 190853Z AUTO 19006KT 5SM BR OVC003 24/24 A2994 RMK AO2 SLP133 T02390239 56007
KLFK 190833Z AUTO 20005KT 4SM BR OVC002 23/23 A2994 RMK AO2 T02330233
KLFK 190825Z AUTO 20006KT 2 1/2SM BR OVC002 23/23 A2994 RMK AO2 T02330233
KLFK 190758Z AUTO 20007KT 1 3/4SM BR BKN003 23/23 A2994 RMK AO2 T02330233
KLFK 190753Z AUTO 20006KT 4SM BR BKN003 23/23 A2994 RMK AO2 SLP134 T02330233
KLFK 190746Z AUTO 21006KT 7SM SCT004 23/23 A2994 RMK AO2 T02330228
KLFK 190653Z AUTO 13003KT 10SM CLR 23/22 A2995 RMK AO2 SLP137 T02280222
KLFK 190623Z AUTO 00000KT 10SM FEW008 FEW015 23/23 A2996 RMK AO2 T02280228
KLFK 190616Z AUTO 16003KT 10SM FEW008 BKN015 23/22 A2996 RMK AO2 T02280222
KLFK 190553Z AUTO 00000KT 10SM OVC006 23/22 A2996 RMK AO2 SLP140 T02280222 10244 20222 403170222 53001
KLFK 190533Z AUTO 14003KT 10SM BKN007 23/22 A2996 RMK AO2 CIG 005V010 T02280222
KLFK 190524Z AUTO 16003KT 10SM SCT009 23/22 A2996 RMK AO2 T02280222
KLFK 190453Z AUTO 12003KT 10SM FEW020 23/22 A2995 RMK AO2 SLP138 T02280222
KLFK 190443Z AUTO 00000KT 10SM SCT018 23/22 A2995 RMK AO2 T02280222
KLFK 190353Z AUTO 12004KT 10SM BKN017 23/22 A2996 RMK AO2 SLP140 T02280222
KLFK 190328Z AUTO 09004KT 10SM BKN017 BKN022 23/22 A2996 RMK AO2 T02280222
KLFK 190253Z AUTO 07003KT 10SM CLR 23/22 A2996 RMK AO2 SLP140 T02280222 55002
KLFK 190153Z AUTO 00000KT 10SM CLR 23/22 A2995 RMK AO2 SLP138 T02280222
KLFK 190053Z AUTO 12003KT 10SM CLR 23/23 A2994 RMK AO2 SLP135 T02330228
KLFK 182353Z AUTO 09003KT 10SM CLR 24/23 A2996 RMK AO2 SLP143 60105 T02440233 10317 20233 58004